sensor_id;sensor_type;location;lat;lon;timestamp;temperature;humidity
25154;DHT22;47555;51.038;6.280;2022-08-03T00:00:37;20.20;97.50
25154;DHT22;47555;51.038;6.280;2022-08-03T00:03:03;20.20;98.00
25154;DHT22;47555;51.038;6.280;2022-08-03T00:05:29;20.10;98.20
25154;DHT22;47555;51.038;6.280;2022-08-03T00:07:54;20.10;98.60
25154;DHT22;47555;51.038;6.280;2022-08-03T00:10:20;20.10;98.80
25154;DHT22;47555;51.038;6.280;2022-08-03T00:12:45;20.10;99.00
25154;DHT22;47555;51.038;6.280;2022-08-03T00:15:11;20.00;99.40
25154;DHT22;47555;51.038;6.280;2022-08-03T00:17:36;20.00;99.60
25154;DHT22;47555;51.038;6.280;2022-08-03T00:20:02;20.00;99.90
25154;DHT22;47555;51.038;6.280;2022-08-03T00:22:28;20.00;99.90
25154;DHT22;47555;51.038;6.280;2022-08-03T00:24:53;20.00;99.90
25154;DHT22;47555;51.038;6.280;2022-08-03T00:27:19;19.90;99.90
25154;DHT22;47555;51.038;6.280;2022-08-03T00:29:44;19.90;99.90
25154;DHT22;47555;51.038;6.280;2022-08-03T00:32:10;19.90;99.90
25154;DHT22;47555;51.038;6.280;2022-08-03T00:34:35;19.90;99.90
25154;DHT22;47555;51.038;6.280;2022-08-03T00:37:01;20.00;99.90
25154;DHT22;47555;51.038;6.280;2022-08-03T00:39:26;19.90;99.90
25154;DHT22;47555;51.038;6.280;2022-08-03T00:41:52;19.90;99.90
25154;DHT22;47555;51.038;6.280;2022-08-03T00:44:17;19.90;99.90
25154;DHT22;47555;51.038;6.280;2022-08-03T00:46:43;19.80;99.90
25154;DHT22;47555;51.038;6.280;2022-08-03T00:49:08;19.80;99.90
25154;DHT22;47555;51.038;6.280;2022-08-03T00:51:34;19.80;99.90
25154;DHT22;47555;51.038;6.280;2022-08-03T00:53:59;19.80;99.90
25154;DHT22;47555;51.038;6.280;2022-08-03T00:56:25;19.80;99.90
25154;DHT22;47555;51.038;6.280;2022-08-03T00:58:53;19.70;99.80
25154;DHT22;47555;51.038;6.280;2022-08-03T01:01:21;19.70;99.90
25154;DHT22;47555;51.038;6.280;2022-08-03T01:03:46;19.70;99.90
25154;DHT22;47555;51.038;6.280;2022-08-03T01:06:18;19.60;99.90
25154;DHT22;47555;51.038;6.280;2022-08-03T01:08:49;19.60;99.90
25154;DHT22;47555;51.038;6.280;2022-08-03T01:11:31;19.60;99.90
25154;DHT22;47555;51.038;6.280;2022-08-03T01:14:08;19.50;99.90
25154;DHT22;47555;51.038;6.280;2022-08-03T01:16:41;19.50;99.90
25154;DHT22;47555;51.038;6.280;2022-08-03T01:22:22;19.40;99.90
25154;DHT22;47555;51.038;6.280;2022-08-03T01:30:45;19.20;99.90
25154;DHT22;47555;51.038;6.280;2022-08-03T01:33:27;19.20;99.90
25154;DHT22;47555;51.038;6.280;2022-08-03T01:35:58;19.10;99.90
25154;DHT22;47555;51.038;6.280;2022-08-03T01:38:53;19.10;99.90
25154;DHT22;47555;51.038;6.280;2022-08-03T01:41:24;19.10;99.90
25154;DHT22;47555;51.038;6.280;2022-08-03T01:43:51;19.00;99.90
25154;DHT22;47555;51.038;6.280;2022-08-03T01:46:18;19.00;99.90
25154;DHT22;47555;51.038;6.280;2022-08-03T01:48:47;18.90;99.90
25154;DHT22;47555;51.038;6.280;2022-08-03T01:51:14;18.90;99.90
25154;DHT22;47555;51.038;6.280;2022-08-03T01:53:40;18.90;99.90
25154;DHT22;47555;51.038;6.280;2022-08-03T01:56:10;18.80;99.90
25154;DHT22;47555;51.038;6.280;2022-08-03T01:58:36;18.80;99.90
25154;DHT22;47555;51.038;6.280;2022-08-03T02:01:04;18.80;99.90
25154;DHT22;47555;51.038;6.280;2022-08-03T02:03:32;18.80;99.90
25154;DHT22;47555;51.038;6.280;2022-08-03T02:05:59;18.70;99.90
25154;DHT22;47555;51.038;6.280;2022-08-03T02:08:26;18.70;99.90
25154;DHT22;47555;51.038;6.280;2022-08-03T02:10:54;18.70;99.90
25154;DHT22;47555;51.038;6.280;2022-08-03T02:13:22;18.60;99.90
25154;DHT22;47555;51.038;6.280;2022-08-03T02:15:49;18.60;99.90
25154;DHT22;47555;51.038;6.280;2022-08-03T02:18:17;18.50;99.90
25154;DHT22;47555;51.038;6.280;2022-08-03T02:20:44;18.50;99.90
25154;DHT22;47555;51.038;6.280;2022-08-03T02:23:10;18.40;99.90
25154;DHT22;47555;51.038;6.280;2022-08-03T02:25:49;18.40;99.90
25154;DHT22;47555;51.038;6.280;2022-08-03T02:28:19;18.40;99.90
25154;DHT22;47555;51.038;6.280;2022-08-03T02:30:49;18.40;99.90
25154;DHT22;47555;51.038;6.280;2022-08-03T02:33:20;18.30;99.90
25154;DHT22;47555;51.038;6.280;2022-08-03T02:35:48;18.30;99.90
25154;DHT22;47555;51.038;6.280;2022-08-03T02:38:18;18.20;99.90
25154;DHT22;47555;51.038;6.280;2022-08-03T02:40:45;18.30;99.90
25154;DHT22;47555;51.038;6.280;2022-08-03T02:43:16;18.20;99.90
25154;DHT22;47555;51.038;6.280;2022-08-03T02:45:44;18.20;99.90
25154;DHT22;47555;51.038;6.280;2022-08-03T02:48:11;18.20;99.90
25154;DHT22;47555;51.038;6.280;2022-08-03T02:50:41;18.10;99.90
25154;DHT22;47555;51.038;6.280;2022-08-03T02:53:08;18.10;99.90
25154;DHT22;47555;51.038;6.280;2022-08-03T02:55:34;18.10;99.90
25154;DHT22;47555;51.038;6.280;2022-08-03T02:58:02;18.10;99.90
25154;DHT22;47555;51.038;6.280;2022-08-03T03:00:30;18.00;99.90
25154;DHT22;47555;51.038;6.280;2022-08-03T03:02:59;18.00;99.90
25154;DHT22;47555;51.038;6.280;2022-08-03T03:05:25;18.00;99.90
25154;DHT22;47555;51.038;6.280;2022-08-03T03:07:52;18.00;99.90
25154;DHT22;47555;51.038;6.280;2022-08-03T03:10:20;18.00;99.90
25154;DHT22;47555;51.038;6.280;2022-08-03T03:12:49;17.90;99.90
25154;DHT22;47555;51.038;6.280;2022-08-03T03:15:15;17.90;99.90
25154;DHT22;47555;51.038;6.280;2022-08-03T03:17:42;17.90;99.90
25154;DHT22;47555;51.038;6.280;2022-08-03T03:20:08;17.90;99.90
25154;DHT22;47555;51.038;6.280;2022-08-03T03:22:34;17.80;99.90
25154;DHT22;47555;51.038;6.280;2022-08-03T03:25:00;17.80;99.90
25154;DHT22;47555;51.038;6.280;2022-08-03T03:27:26;17.80;99.90
25154;DHT22;47555;51.038;6.280;2022-08-03T03:29:52;17.80;99.90
25154;DHT22;47555;51.038;6.280;2022-08-03T03:32:18;17.80;99.90
25154;DHT22;47555;51.038;6.280;2022-08-03T03:34:44;17.70;99.90
25154;DHT22;47555;51.038;6.280;2022-08-03T03:37:10;17.70;99.90
25154;DHT22;47555;51.038;6.280;2022-08-03T03:39:36;17.70;99.90
25154;DHT22;47555;51.038;6.280;2022-08-03T03:42:02;17.70;99.90
25154;DHT22;47555;51.038;6.280;2022-08-03T03:44:28;17.70;99.90
25154;DHT22;47555;51.038;6.280;2022-08-03T03:46:56;17.60;99.90
25154;DHT22;47555;51.038;6.280;2022-08-03T03:49:22;17.60;99.90
25154;DHT22;47555;51.038;6.280;2022-08-03T03:51:47;17.60;99.90
25154;DHT22;47555;51.038;6.280;2022-08-03T03:54:13;17.60;99.90
25154;DHT22;47555;51.038;6.280;2022-08-03T03:56:38;17.50;99.90
25154;DHT22;47555;51.038;6.280;2022-08-03T03:59:04;17.50;99.90
25154;DHT22;47555;51.038;6.280;2022-08-03T04:01:30;17.50;99.90
25154;DHT22;47555;51.038;6.280;2022-08-03T04:03:56;17.50;99.90
25154;DHT22;47555;51.038;6.280;2022-08-03T04:06:21;17.50;99.90
25154;DHT22;47555;51.038;6.280;2022-08-03T04:09:07;17.40;99.90
25154;DHT22;47555;51.038;6.280;2022-08-03T04:11:54;17.40;99.90
25154;DHT22;47555;51.038;6.280;2022-08-03T04:14:39;17.40;99.90
25154;DHT22;47555;51.038;6.280;2022-08-03T04:17:07;17.40;99.90
25154;DHT22;47555;51.038;6.280;2022-08-03T04:19:44;17.40;99.90
25154;DHT22;47555;51.038;6.280;2022-08-03T04:22:13;17.40;99.90
25154;DHT22;47555;51.038;6.280;2022-08-03T04:24:43;17.40;99.90
25154;DHT22;47555;51.038;6.280;2022-08-03T04:27:13;17.40;99.90
25154;DHT22;47555;51.038;6.280;2022-08-03T04:29:43;17.40;99.90
25154;DHT22;47555;51.038;6.280;2022-08-03T04:32:10;17.30;99.90
25154;DHT22;47555;51.038;6.280;2022-08-03T04:34:36;17.30;99.90
25154;DHT22;47555;51.038;6.280;2022-08-03T04:37:06;17.30;99.90
25154;DHT22;47555;51.038;6.280;2022-08-03T04:39:34;17.30;99.90
25154;DHT22;47555;51.038;6.280;2022-08-03T04:42:06;17.30;99.90
25154;DHT22;47555;51.038;6.280;2022-08-03T04:44:38;17.30;99.90
25154;DHT22;47555;51.038;6.280;2022-08-03T04:47:05;17.30;99.90
25154;DHT22;47555;51.038;6.280;2022-08-03T04:49:31;17.40;99.90
25154;DHT22;47555;51.038;6.280;2022-08-03T04:51:57;17.40;99.90
25154;DHT22;47555;51.038;6.280;2022-08-03T04:54:23;17.40;99.90
25154;DHT22;47555;51.038;6.280;2022-08-03T04:56:48;17.40;99.90
25154;DHT22;47555;51.038;6.280;2022-08-03T04:59:14;17.50;99.90
25154;DHT22;47555;51.038;6.280;2022-08-03T05:01:40;17.50;99.90
25154;DHT22;47555;51.038;6.280;2022-08-03T05:04:06;17.60;99.90
25154;DHT22;47555;51.038;6.280;2022-08-03T05:06:32;17.60;99.90
25154;DHT22;47555;51.038;6.280;2022-08-03T05:08:57;17.60;99.90
25154;DHT22;47555;51.038;6.280;2022-08-03T05:11:23;17.70;99.90
25154;DHT22;47555;51.038;6.280;2022-08-03T05:13:48;17.70;99.90
25154;DHT22;47555;51.038;6.280;2022-08-03T05:16:14;17.80;99.90
25154;DHT22;47555;51.038;6.280;2022-08-03T05:18:41;17.80;99.90
25154;DHT22;47555;51.038;6.280;2022-08-03T05:21:08;17.90;99.90
25154;DHT22;47555;51.038;6.280;2022-08-03T05:23:34;18.00;99.90
25154;DHT22;47555;51.038;6.280;2022-08-03T05:26:00;18.00;99.90
25154;DHT22;47555;51.038;6.280;2022-08-03T05:28:25;18.10;99.90
25154;DHT22;47555;51.038;6.280;2022-08-03T05:30:51;18.20;99.90
25154;DHT22;47555;51.038;6.280;2022-08-03T05:33:16;18.40;99.90
25154;DHT22;47555;51.038;6.280;2022-08-03T05:35:42;18.50;99.90
25154;DHT22;47555;51.038;6.280;2022-08-03T05:38:08;18.70;99.90
25154;DHT22;47555;51.038;6.280;2022-08-03T05:40:33;18.90;99.90
25154;DHT22;47555;51.038;6.280;2022-08-03T05:43:00;19.10;99.90
25154;DHT22;47555;51.038;6.280;2022-08-03T05:45:26;19.30;99.90
25154;DHT22;47555;51.038;6.280;2022-08-03T05:47:51;19.50;99.90
25154;DHT22;47555;51.038;6.280;2022-08-03T05:50:18;19.70;99.90
25154;DHT22;47555;51.038;6.280;2022-08-03T05:52:44;19.90;99.90
25154;DHT22;47555;51.038;6.280;2022-08-03T05:55:10;20.00;99.90
25154;DHT22;47555;51.038;6.280;2022-08-03T05:57:37;20.20;99.90
25154;DHT22;47555;51.038;6.280;2022-08-03T06:00:07;20.30;99.90
25154;DHT22;47555;51.038;6.280;2022-08-03T06:02:33;20.50;99.90
25154;DHT22;47555;51.038;6.280;2022-08-03T06:04:59;20.70;99.90
25154;DHT22;47555;51.038;6.280;2022-08-03T06:07:25;20.80;99.90
25154;DHT22;47555;51.038;6.280;2022-08-03T06:09:51;21.00;99.90
25154;DHT22;47555;51.038;6.280;2022-08-03T06:12:16;21.10;99.90
25154;DHT22;47555;51.038;6.280;2022-08-03T06:14:42;21.30;99.90
25154;DHT22;47555;51.038;6.280;2022-08-03T06:17:08;21.40;99.90
25154;DHT22;47555;51.038;6.280;2022-08-03T06:19:33;21.50;99.90
25154;DHT22;47555;51.038;6.280;2022-08-03T06:21:59;21.70;99.90
25154;DHT22;47555;51.038;6.280;2022-08-03T06:24:24;21.70;99.90
25154;DHT22;47555;51.038;6.280;2022-08-03T06:26:50;21.90;99.30
25154;DHT22;47555;51.038;6.280;2022-08-03T06:29:15;22.00;99.20
25154;DHT22;47555;51.038;6.280;2022-08-03T06:31:41;22.10;98.70
25154;DHT22;47555;51.038;6.280;2022-08-03T06:34:06;22.20;99.30
25154;DHT22;47555;51.038;6.280;2022-08-03T06:36:32;22.30;98.40
25154;DHT22;47555;51.038;6.280;2022-08-03T06:38:58;22.50;98.90
25154;DHT22;47555;51.038;6.280;2022-08-03T06:41:25;22.80;99.70
25154;DHT22;47555;51.038;6.280;2022-08-03T06:43:51;23.00;99.90
25154;DHT22;47555;51.038;6.280;2022-08-03T06:46:17;23.20;98.80
25154;DHT22;47555;51.038;6.280;2022-08-03T06:48:43;23.40;95.40
25154;DHT22;47555;51.038;6.280;2022-08-03T06:51:08;23.60;94.90
25154;DHT22;47555;51.038;6.280;2022-08-03T06:53:34;23.70;94.50
25154;DHT22;47555;51.038;6.280;2022-08-03T06:56:00;23.90;95.40
25154;DHT22;47555;51.038;6.280;2022-08-03T06:58:25;24.10;94.50
25154;DHT22;47555;51.038;6.280;2022-08-03T07:00:51;24.30;94.60
25154;DHT22;47555;51.038;6.280;2022-08-03T07:03:17;24.40;92.00
25154;DHT22;47555;51.038;6.280;2022-08-03T07:05:42;24.60;90.80
25154;DHT22;47555;51.038;6.280;2022-08-03T07:08:09;24.80;90.80
25154;DHT22;47555;51.038;6.280;2022-08-03T07:10:35;25.00;91.20
25154;DHT22;47555;51.038;6.280;2022-08-03T07:13:01;25.00;87.50
25154;DHT22;47555;51.038;6.280;2022-08-03T07:15:26;25.10;86.20
25154;DHT22;47555;51.038;6.280;2022-08-03T07:17:52;25.20;85.10
25154;DHT22;47555;51.038;6.280;2022-08-03T07:20:17;25.30;84.90
25154;DHT22;47555;51.038;6.280;2022-08-03T07:22:44;25.40;83.20
25154;DHT22;47555;51.038;6.280;2022-08-03T07:25:09;25.40;81.80
25154;DHT22;47555;51.038;6.280;2022-08-03T07:27:35;25.40;80.90
25154;DHT22;47555;51.038;6.280;2022-08-03T07:30:03;25.50;80.90
25154;DHT22;47555;51.038;6.280;2022-08-03T07:32:29;25.70;81.20
25154;DHT22;47555;51.038;6.280;2022-08-03T07:34:55;25.80;77.90
25154;DHT22;47555;51.038;6.280;2022-08-03T07:37:21;26.00;74.90
25154;DHT22;47555;51.038;6.280;2022-08-03T07:39:47;26.20;73.80
25154;DHT22;47555;51.038;6.280;2022-08-03T07:42:13;26.30;69.60
25154;DHT22;47555;51.038;6.280;2022-08-03T07:44:38;26.40;67.30
25154;DHT22;47555;51.038;6.280;2022-08-03T07:47:04;26.60;64.80
25154;DHT22;47555;51.038;6.280;2022-08-03T07:49:30;26.70;64.00
25154;DHT22;47555;51.038;6.280;2022-08-03T07:51:55;26.90;61.40
25154;DHT22;47555;51.038;6.280;2022-08-03T07:54:39;27.10;56.60
25154;DHT22;47555;51.038;6.280;2022-08-03T07:57:05;27.30;55.10
25154;DHT22;47555;51.038;6.280;2022-08-03T07:59:30;27.30;52.70
25154;DHT22;47555;51.038;6.280;2022-08-03T08:01:56;27.40;51.60
25154;DHT22;47555;51.038;6.280;2022-08-03T08:04:21;27.50;48.30
25154;DHT22;47555;51.038;6.280;2022-08-03T08:06:47;27.70;46.70
25154;DHT22;47555;51.038;6.280;2022-08-03T08:09:13;27.90;46.40
25154;DHT22;47555;51.038;6.280;2022-08-03T08:11:39;28.20;43.80
25154;DHT22;47555;51.038;6.280;2022-08-03T08:14:04;28.30;42.30
25154;DHT22;47555;51.038;6.280;2022-08-03T08:16:31;28.60;41.00
25154;DHT22;47555;51.038;6.280;2022-08-03T08:18:57;28.70;39.10
25154;DHT22;47555;51.038;6.280;2022-08-03T08:21:22;28.80;38.30
25154;DHT22;47555;51.038;6.280;2022-08-03T08:23:48;28.90;38.50
25154;DHT22;47555;51.038;6.280;2022-08-03T08:26:13;29.10;38.00
25154;DHT22;47555;51.038;6.280;2022-08-03T08:28:39;29.20;37.00
25154;DHT22;47555;51.038;6.280;2022-08-03T08:31:05;29.30;36.30
25154;DHT22;47555;51.038;6.280;2022-08-03T08:33:31;29.30;35.30
25154;DHT22;47555;51.038;6.280;2022-08-03T08:35:59;29.40;35.60
25154;DHT22;47555;51.038;6.280;2022-08-03T08:38:25;29.50;35.20
25154;DHT22;47555;51.038;6.280;2022-08-03T08:40:50;29.70;35.50
25154;DHT22;47555;51.038;6.280;2022-08-03T08:43:16;29.80;33.50
25154;DHT22;47555;51.038;6.280;2022-08-03T08:45:42;29.90;32.80
25154;DHT22;47555;51.038;6.280;2022-08-03T08:48:09;30.00;33.20
25154;DHT22;47555;51.038;6.280;2022-08-03T08:50:37;30.10;32.60
25154;DHT22;47555;51.038;6.280;2022-08-03T08:53:06;30.20;33.40
25154;DHT22;47555;51.038;6.280;2022-08-03T08:55:32;30.40;32.30
25154;DHT22;47555;51.038;6.280;2022-08-03T08:58:02;30.50;30.20
25154;DHT22;47555;51.038;6.280;2022-08-03T09:00:29;30.50;29.30
25154;DHT22;47555;51.038;6.280;2022-08-03T09:02:55;30.50;29.00
25154;DHT22;47555;51.038;6.280;2022-08-03T09:05:21;30.60;29.00
25154;DHT22;47555;51.038;6.280;2022-08-03T09:07:47;30.70;28.10
25154;DHT22;47555;51.038;6.280;2022-08-03T09:10:15;30.80;27.40
25154;DHT22;47555;51.038;6.280;2022-08-03T09:12:47;30.70;27.40
25154;DHT22;47555;51.038;6.280;2022-08-03T09:17:56;30.90;27.20
25154;DHT22;47555;51.038;6.280;2022-08-03T09:20:23;30.90;26.60
25154;DHT22;47555;51.038;6.280;2022-08-03T09:23:09;30.80;26.80
25154;DHT22;47555;51.038;6.280;2022-08-03T09:25:37;30.90;27.20
25154;DHT22;47555;51.038;6.280;2022-08-03T09:28:08;30.90;26.80
25154;DHT22;47555;51.038;6.280;2022-08-03T09:30:37;31.00;26.90
25154;DHT22;47555;51.038;6.280;2022-08-03T09:33:13;30.90;26.70
25154;DHT22;47555;51.038;6.280;2022-08-03T09:35:46;30.90;26.90
25154;DHT22;47555;51.038;6.280;2022-08-03T09:38:12;31.00;28.20
25154;DHT22;47555;51.038;6.280;2022-08-03T09:40:38;31.10;27.30
25154;DHT22;47555;51.038;6.280;2022-08-03T09:43:05;31.20;27.50
25154;DHT22;47555;51.038;6.280;2022-08-03T09:45:36;31.40;27.60
25154;DHT22;47555;51.038;6.280;2022-08-03T09:48:26;31.50;26.40
25154;DHT22;47555;51.038;6.280;2022-08-03T09:50:54;31.50;26.60
25154;DHT22;47555;51.038;6.280;2022-08-03T09:53:21;31.70;25.90
25154;DHT22;47555;51.038;6.280;2022-08-03T09:55:54;31.70;25.80
25154;DHT22;47555;51.038;6.280;2022-08-03T09:58:21;31.80;25.40
25154;DHT22;47555;51.038;6.280;2022-08-03T10:01:01;31.80;25.60
25154;DHT22;47555;51.038;6.280;2022-08-03T10:03:29;31.80;25.30
25154;DHT22;47555;51.038;6.280;2022-08-03T10:05:56;32.00;25.40
25154;DHT22;47555;51.038;6.280;2022-08-03T10:08:22;32.00;25.00
25154;DHT22;47555;51.038;6.280;2022-08-03T10:10:50;32.10;25.30
25154;DHT22;47555;51.038;6.280;2022-08-03T10:13:19;32.20;25.00
25154;DHT22;47555;51.038;6.280;2022-08-03T10:15:46;32.30;25.00
25154;DHT22;47555;51.038;6.280;2022-08-03T10:18:12;32.30;24.20
25154;DHT22;47555;51.038;6.280;2022-08-03T10:20:45;32.20;24.10
25154;DHT22;47555;51.038;6.280;2022-08-03T10:23:13;32.20;24.60
25154;DHT22;47555;51.038;6.280;2022-08-03T10:25:39;32.20;24.30
25154;DHT22;47555;51.038;6.280;2022-08-03T10:28:05;32.10;24.10
25154;DHT22;47555;51.038;6.280;2022-08-03T10:30:32;32.20;24.30
25154;DHT22;47555;51.038;6.280;2022-08-03T10:33:02;32.20;24.50
25154;DHT22;47555;51.038;6.280;2022-08-03T10:35:29;32.30;24.10
25154;DHT22;47555;51.038;6.280;2022-08-03T10:38:03;32.30;24.20
25154;DHT22;47555;51.038;6.280;2022-08-03T10:40:32;32.30;24.30
25154;DHT22;47555;51.038;6.280;2022-08-03T10:43:11;32.40;24.40
25154;DHT22;47555;51.038;6.280;2022-08-03T10:45:40;32.40;24.10
25154;DHT22;47555;51.038;6.280;2022-08-03T10:48:07;32.50;24.40
25154;DHT22;47555;51.038;6.280;2022-08-03T10:50:34;32.50;24.10
25154;DHT22;47555;51.038;6.280;2022-08-03T10:53:01;32.70;23.60
25154;DHT22;47555;51.038;6.280;2022-08-03T10:55:40;32.70;23.40
25154;DHT22;47555;51.038;6.280;2022-08-03T11:01:04;32.80;23.50
25154;DHT22;47555;51.038;6.280;2022-08-03T11:03:30;32.80;23.30
25154;DHT22;47555;51.038;6.280;2022-08-03T11:06:19;32.80;24.10
25154;DHT22;47555;51.038;6.280;2022-08-03T11:08:46;32.80;23.40
25154;DHT22;47555;51.038;6.280;2022-08-03T11:14:04;33.00;25.10
25154;DHT22;47555;51.038;6.280;2022-08-03T11:16:34;33.00;23.80
25154;DHT22;47555;51.038;6.280;2022-08-03T11:19:02;33.10;23.20
25154;DHT22;47555;51.038;6.280;2022-08-03T11:29:58;33.20;23.30
25154;DHT22;47555;51.038;6.280;2022-08-03T11:35:22;33.20;22.70
25154;DHT22;47555;51.038;6.280;2022-08-03T11:46:03;33.30;23.70
25154;DHT22;47555;51.038;6.280;2022-08-03T11:48:33;33.40;23.90
25154;DHT22;47555;51.038;6.280;2022-08-03T11:51:00;33.50;23.50
25154;DHT22;47555;51.038;6.280;2022-08-03T11:53:26;33.50;21.90
25154;DHT22;47555;51.038;6.280;2022-08-03T11:55:52;33.50;21.90
25154;DHT22;47555;51.038;6.280;2022-08-03T11:58:20;33.50;22.10
25154;DHT22;47555;51.038;6.280;2022-08-03T12:00:46;33.50;22.50
25154;DHT22;47555;51.038;6.280;2022-08-03T12:03:13;33.60;22.40
25154;DHT22;47555;51.038;6.280;2022-08-03T12:05:48;33.60;22.50
25154;DHT22;47555;51.038;6.280;2022-08-03T12:08:29;33.70;22.40
25154;DHT22;47555;51.038;6.280;2022-08-03T12:10:56;33.70;22.00
25154;DHT22;47555;51.038;6.280;2022-08-03T12:13:24;33.70;21.90
25154;DHT22;47555;51.038;6.280;2022-08-03T12:15:55;33.70;21.60
25154;DHT22;47555;51.038;6.280;2022-08-03T12:18:21;33.80;21.90
25154;DHT22;47555;51.038;6.280;2022-08-03T12:20:49;33.90;21.10
25154;DHT22;47555;51.038;6.280;2022-08-03T12:23:15;33.90;21.50
25154;DHT22;47555;51.038;6.280;2022-08-03T12:25:42;33.90;21.60
25154;DHT22;47555;51.038;6.280;2022-08-03T12:30:38;33.90;20.50
25154;DHT22;47555;51.038;6.280;2022-08-03T12:35:39;33.80;20.20
25154;DHT22;47555;51.038;6.280;2022-08-03T12:38:05;33.80;20.00
25154;DHT22;47555;51.038;6.280;2022-08-03T12:40:31;33.90;20.70
25154;DHT22;47555;51.038;6.280;2022-08-03T12:42:56;33.90;20.00
25154;DHT22;47555;51.038;6.280;2022-08-03T12:45:27;34.00;19.80
25154;DHT22;47555;51.038;6.280;2022-08-03T12:47:58;34.00;19.70
25154;DHT22;47555;51.038;6.280;2022-08-03T12:50:32;34.00;19.50
25154;DHT22;47555;51.038;6.280;2022-08-03T12:52:59;34.00;19.60
25154;DHT22;47555;51.038;6.280;2022-08-03T12:55:26;34.10;20.00
25154;DHT22;47555;51.038;6.280;2022-08-03T12:58:01;34.20;19.50
25154;DHT22;47555;51.038;6.280;2022-08-03T13:00:28;34.20;19.20
25154;DHT22;47555;51.038;6.280;2022-08-03T13:03:07;34.30;18.80
25154;DHT22;47555;51.038;6.280;2022-08-03T13:05:42;34.40;18.60
25154;DHT22;47555;51.038;6.280;2022-08-03T13:08:19;34.40;18.50
25154;DHT22;47555;51.038;6.280;2022-08-03T13:10:45;34.50;18.90
25154;DHT22;47555;51.038;6.280;2022-08-03T13:13:11;34.50;18.40
25154;DHT22;47555;51.038;6.280;2022-08-03T13:15:36;34.70;18.40
25154;DHT22;47555;51.038;6.280;2022-08-03T13:18:02;34.70;18.20
25154;DHT22;47555;51.038;6.280;2022-08-03T13:20:27;34.70;18.10
25154;DHT22;47555;51.038;6.280;2022-08-03T13:22:53;34.80;18.00
25154;DHT22;47555;51.038;6.280;2022-08-03T13:25:18;34.70;18.10
25154;DHT22;47555;51.038;6.280;2022-08-03T13:27:45;34.70;18.50
25154;DHT22;47555;51.038;6.280;2022-08-03T13:30:11;34.80;18.30
25154;DHT22;47555;51.038;6.280;2022-08-03T13:32:37;34.80;18.20
25154;DHT22;47555;51.038;6.280;2022-08-03T13:35:03;34.80;18.20
25154;DHT22;47555;51.038;6.280;2022-08-03T13:37:30;34.90;17.80
25154;DHT22;47555;51.038;6.280;2022-08-03T13:39:59;35.00;18.00
25154;DHT22;47555;51.038;6.280;2022-08-03T13:42:25;35.00;17.90
25154;DHT22;47555;51.038;6.280;2022-08-03T13:44:50;35.00;18.30
25154;DHT22;47555;51.038;6.280;2022-08-03T13:47:16;34.90;17.90
25154;DHT22;47555;51.038;6.280;2022-08-03T13:49:41;34.90;17.80
25154;DHT22;47555;51.038;6.280;2022-08-03T13:52:07;35.00;18.30
25154;DHT22;47555;51.038;6.280;2022-08-03T13:54:32;34.90;18.10
25154;DHT22;47555;51.038;6.280;2022-08-03T13:56:58;34.90;17.50
25154;DHT22;47555;51.038;6.280;2022-08-03T13:59:24;35.00;17.70
25154;DHT22;47555;51.038;6.280;2022-08-03T14:01:51;35.00;17.90
25154;DHT22;47555;51.038;6.280;2022-08-03T14:04:17;35.10;17.40
25154;DHT22;47555;51.038;6.280;2022-08-03T14:06:43;35.10;17.50
25154;DHT22;47555;51.038;6.280;2022-08-03T14:09:13;35.10;17.00
25154;DHT22;47555;51.038;6.280;2022-08-03T14:11:40;35.10;17.40
25154;DHT22;47555;51.038;6.280;2022-08-03T14:14:05;35.20;17.40
25154;DHT22;47555;51.038;6.280;2022-08-03T14:16:31;35.10;17.20
25154;DHT22;47555;51.038;6.280;2022-08-03T14:18:56;35.20;17.80
25154;DHT22;47555;51.038;6.280;2022-08-03T14:21:22;35.30;17.40
25154;DHT22;47555;51.038;6.280;2022-08-03T14:23:47;35.20;17.90
25154;DHT22;47555;51.038;6.280;2022-08-03T14:26:13;35.20;16.60
25154;DHT22;47555;51.038;6.280;2022-08-03T14:28:39;35.00;16.30
25154;DHT22;47555;51.038;6.280;2022-08-03T14:31:06;35.00;16.40
25154;DHT22;47555;51.038;6.280;2022-08-03T14:33:31;35.00;16.50
25154;DHT22;47555;51.038;6.280;2022-08-03T14:35:57;35.00;16.60
25154;DHT22;47555;51.038;6.280;2022-08-03T14:38:23;35.00;16.70
25154;DHT22;47555;51.038;6.280;2022-08-03T14:40:49;35.10;16.20
25154;DHT22;47555;51.038;6.280;2022-08-03T14:43:15;35.10;16.50
25154;DHT22;47555;51.038;6.280;2022-08-03T14:45:42;35.10;16.70
25154;DHT22;47555;51.038;6.280;2022-08-03T14:48:07;35.20;16.50
25154;DHT22;47555;51.038;6.280;2022-08-03T14:50:33;35.20;17.10
25154;DHT22;47555;51.038;6.280;2022-08-03T14:52:59;35.10;16.20
25154;DHT22;47555;51.038;6.280;2022-08-03T14:55:25;34.90;16.00
25154;DHT22;47555;51.038;6.280;2022-08-03T14:57:50;34.70;16.50
25154;DHT22;47555;51.038;6.280;2022-08-03T15:00:16;34.50;16.70
25154;DHT22;47555;51.038;6.280;2022-08-03T15:02:41;34.50;16.70
25154;DHT22;47555;51.038;6.280;2022-08-03T15:05:07;34.60;17.00
25154;DHT22;47555;51.038;6.280;2022-08-03T15:07:33;34.70;17.50
25154;DHT22;47555;51.038;6.280;2022-08-03T15:09:58;34.80;17.00
25154;DHT22;47555;51.038;6.280;2022-08-03T15:12:24;34.90;16.40
25154;DHT22;47555;51.038;6.280;2022-08-03T15:14:50;35.00;17.10
25154;DHT22;47555;51.038;6.280;2022-08-03T15:17:16;35.20;17.30
25154;DHT22;47555;51.038;6.280;2022-08-03T15:19:42;35.30;17.40
25154;DHT22;47555;51.038;6.280;2022-08-03T15:22:08;35.40;17.70
25154;DHT22;47555;51.038;6.280;2022-08-03T15:24:33;35.40;17.40
25154;DHT22;47555;51.038;6.280;2022-08-03T15:26:59;35.40;17.40
25154;DHT22;47555;51.038;6.280;2022-08-03T15:29:24;35.30;17.50
25154;DHT22;47555;51.038;6.280;2022-08-03T15:31:50;35.30;16.60
25154;DHT22;47555;51.038;6.280;2022-08-03T15:34:16;35.30;16.70
25154;DHT22;47555;51.038;6.280;2022-08-03T15:36:42;35.30;17.10
25154;DHT22;47555;51.038;6.280;2022-08-03T15:39:08;35.30;17.20
25154;DHT22;47555;51.038;6.280;2022-08-03T15:41:33;35.20;16.80
25154;DHT22;47555;51.038;6.280;2022-08-03T15:44:00;35.20;16.60
25154;DHT22;47555;51.038;6.280;2022-08-03T15:46:26;35.20;17.00
25154;DHT22;47555;51.038;6.280;2022-08-03T15:48:51;35.20;17.50
25154;DHT22;47555;51.038;6.280;2022-08-03T15:51:17;35.10;17.70
25154;DHT22;47555;51.038;6.280;2022-08-03T15:53:42;35.10;17.50
25154;DHT22;47555;51.038;6.280;2022-08-03T15:56:08;35.10;17.90
25154;DHT22;47555;51.038;6.280;2022-08-03T15:58:41;35.10;17.80
25154;DHT22;47555;51.038;6.280;2022-08-03T16:01:07;35.00;17.70
25154;DHT22;47555;51.038;6.280;2022-08-03T16:03:33;34.90;17.80
25154;DHT22;47555;51.038;6.280;2022-08-03T16:06:03;34.90;18.10
25154;DHT22;47555;51.038;6.280;2022-08-03T16:08:29;34.90;18.20
25154;DHT22;47555;51.038;6.280;2022-08-03T16:10:55;34.80;18.10
25154;DHT22;47555;51.038;6.280;2022-08-03T16:13:21;34.80;18.20